Time;durP1;ratioP1;P1;durP2;ratioP2;P2;SDS_P1;SDS_P2;PMS_P1;PMS_P2;Temp;Humidity;BMP_temperature;BMP_pressure;BME280_temperature;BME280_humidity;BME280_pressure;Samples;Min_cycle;Max_cycle;Signal;HPM_P1;HPM_P2
2022/01/31 00:01:56;;;;;;;2.77;1.30;;;18.50;43.00;;;;;;5081275;27;89112;-68
2022/01/31 00:04:26;;;;;;;2.63;1.43;;;18.50;43.00;;;;;;5079112;27;88520;-68
2022/01/31 00:06:54;;;;;;;3.43;1.60;;;18.50;43.00;;;;;;5080255;27;88621;-68
2022/01/31 00:09:23;;;;;;;4.00;1.60;;;18.40;42.90;;;;;;5082144;27;90690;-68
2022/01/31 00:11:58;;;;;;;2.83;1.63;;;18.40;42.90;;;;;;5080297;27;90183;-68
2022/01/31 00:14:34;;;;;;;5.90;1.50;;;18.40;42.90;;;;;;5080677;27;88918;-68
2022/01/31 00:17:02;;;;;;;2.77;1.30;;;18.40;42.90;;;;;;5077206;27;88636;-68
2022/01/31 00:19:31;;;;;;;2.33;1.13;;;18.50;43.00;;;;;;5081963;27;89446;-68
2022/01/31 00:21:59;;;;;;;1.50;1.10;;;18.40;42.90;;;;;;5082252;27;88876;-68
2022/01/31 00:24:27;;;;;;;1.50;1.40;;;18.40;42.90;;;;;;5081790;27;91422;-67
2022/01/31 00:26:55;;;;;;;1.07;1.00;;;18.50;43.10;;;;;;5081590;27;88654;-67
2022/01/31 00:29:23;;;;;;;3.93;1.23;;;18.50;43.00;;;;;;5081250;27;88375;-68
2022/01/31 00:31:51;;;;;;;2.40;1.33;;;18.50;43.00;;;;;;5081928;27;88699;-68
2022/01/31 00:34:19;;;;;;;2.70;1.37;;;18.40;43.00;;;;;;5081670;27;88817;-68
2022/01/31 00:36:49;;;;;;;2.87;1.30;;;18.50;43.10;;;;;;5078692;27;89785;-68
2022/01/31 00:39:17;;;;;;;3.13;1.73;;;18.50;43.80;;;;;;5073578;27;89641;-68
2022/01/31 00:41:45;;;;;;;2.20;1.37;;;18.40;43.00;;;;;;5069659;27;91443;-68
2022/01/31 00:44:17;;;;;;;2.37;1.07;;;18.40;43.10;;;;;;5060737;27;89800;-67
2022/01/31 00:46:50;;;;;;;3.27;1.70;;;18.40;43.00;;;;;;5077653;27;88517;-68
2022/01/31 00:49:27;;;;;;;3.03;1.23;;;18.40;43.10;;;;;;5080982;27;90308;-68
2022/01/31 00:51:57;;;;;;;3.33;1.60;;;18.40;43.10;;;;;;5081972;27;90131;-68
2022/01/31 00:54:24;;;;;;;3.67;1.40;;;18.40;43.20;;;;;;5080043;27;89456;-68
2022/01/31 00:56:53;;;;;;;3.27;1.43;;;18.40;43.20;;;;;;5081111;27;88382;-68
2022/01/31 00:59:21;;;;;;;1.80;1.10;;;18.40;43.20;;;;;;5079857;27;88934;-68
2022/01/31 01:01:49;;;;;;;4.40;1.00;;;18.40;43.20;;;;;;5080588;27;90119;-68
2022/01/31 01:04:17;;;;;;;3.33;1.63;;;18.40;43.20;;;;;;5081082;27;88554;-68
2022/01/31 01:06:45;;;;;;;3.97;2.47;;;18.40;43.30;;;;;;5080682;27;88606;-68
2022/01/31 01:09:14;;;;;;;4.13;2.37;;;18.40;43.30;;;;;;5080173;27;89474;-67
2022/01/31 01:11:42;;;;;;;4.43;2.70;;;18.40;43.30;;;;;;5080034;27;90029;-68
2022/01/31 01:14:10;;;;;;;5.37;2.53;;;18.40;43.30;;;;;;5079341;27;88517;-68
2022/01/31 01:16:38;;;;;;;8.47;2.83;;;18.40;44.00;;;;;;5080993;27;88700;-68
2022/01/31 01:19:06;;;;;;;5.70;2.77;;;18.40;43.40;;;;;;5073652;27;90753;-67
2022/01/31 01:21:34;;;;;;;5.07;2.50;;;18.40;43.40;;;;;;5080920;27;90120;-67
2022/01/31 01:24:02;;;;;;;6.33;3.37;;;18.40;43.40;;;;;;5076092;27;88551;-67
2022/01/31 01:26:32;;;;;;;4.33;3.03;;;18.40;43.50;;;;;;5072735;27;88638;-68
2022/01/31 01:29:00;;;;;;;6.17;3.03;;;18.40;43.40;;;;;;5080078;27;90712;-68
2022/01/31 01:31:28;;;;;;;4.70;2.23;;;18.40;43.50;;;;;;5079640;27;90132;-69
2022/01/31 01:33:56;;;;;;;4.90;3.20;;;18.40;44.10;;;;;;5080419;27;88463;-68
2022/01/31 01:36:24;;;;;;;4.80;2.97;;;18.40;43.50;;;;;;5080156;27;88471;-68
2022/01/31 01:38:52;;;;;;;4.80;3.53;;;18.40;43.50;;;;;;5080521;27;89541;-68
2022/01/31 01:41:20;;;;;;;5.20;3.10;;;18.40;43.50;;;;;;5076839;27;90866;-67
2022/01/31 01:43:49;;;;;;;6.43;3.23;;;18.40;43.50;;;;;;5040750;27;88842;-68
2022/01/31 01:46:17;;;;;;;5.87;3.53;;;18.40;43.50;;;;;;5059800;27;88378;-67
2022/01/31 01:48:45;;;;;;;5.77;3.10;;;18.40;43.50;;;;;;5051119;27;89856;-68
2022/01/31 01:51:14;;;;;;;7.30;3.70;;;18.40;43.50;;;;;;5059703;27;90093;-68
2022/01/31 01:53:42;;;;;;;4.53;3.43;;;18.40;43.50;;;;;;5055128;27;88505;-68
2022/01/31 01:56:10;;;;;;;8.97;4.00;;;18.40;43.50;;;;;;5058865;27;88658;-68
2022/01/31 01:58:40;;;;;;;3.97;2.77;;;18.40;43.60;;;;;;5051757;27;91323;-68
2022/01/31 02:01:10;;;;;;;6.10;3.43;;;18.50;43.70;;;;;;5041018;28;90260;-68
2022/01/31 02:03:39;;;;;;;10.87;5.50;;;18.40;43.60;;;;;;5046439;27;88681;-68
2022/01/31 02:06:08;;;;;;;7.40;4.73;;;18.40;43.70;;;;;;5040222;28;88574;-69
2022/01/31 02:08:40;;;;;;;8.37;5.27;;;18.40;43.70;;;;;;5047986;27;89403;-69
2022/01/31 02:11:08;;;;;;;11.53;5.27;;;18.40;43.70;;;;;;5052966;27;89024;-68
2022/01/31 02:13:36;;;;;;;9.77;5.23;;;18.40;43.80;;;;;;5057975;27;88459;-68
2022/01/31 02:16:05;;;;;;;8.53;5.77;;;18.30;43.70;;;;;;5045724;27;88649;-69
2022/01/31 02:18:44;;;;;;;9.00;5.50;;;18.40;43.80;;;;;;5053896;27;90581;-69
2022/01/31 02:21:13;;;;;;;7.80;5.10;;;18.40;43.80;;;;;;5047228;27;89176;-69
2022/01/31 02:23:41;;;;;;;10.37;6.07;;;18.30;43.80;;;;;;5051535;27;88712;-69
2022/01/31 02:26:09;;;;;;;9.63;5.80;;;18.30;43.80;;;;;;5041989;27;88591;-69
2022/01/31 02:28:38;;;;;;;8.87;5.60;;;18.40;43.90;;;;;;5054220;27;90541;-68
2022/01/31 02:31:06;;;;;;;10.30;6.07;;;18.40;43.90;;;;;;5043960;27;90066;-69
2022/01/31 02:33:34;;;;;;;9.10;5.77;;;18.30;43.90;;;;;;5046255;27;88736;-70
2022/01/31 02:36:03;;;;;;;7.27;4.70;;;18.30;43.90;;;;;;5057407;27;88611;-68
2022/01/31 02:38:32;;;;;;;12.17;6.73;;;18.30;43.90;;;;;;5052143;27;90872;-68
2022/01/31 02:41:01;;;;;;;10.33;5.37;;;18.30;43.90;;;;;;5046896;27;89374;-68
2022/01/31 02:43:30;;;;;;;10.50;5.53;;;18.30;43.90;;;;;;5071270;27;88980;-68
2022/01/31 02:45:58;;;;;;;10.17;5.93;;;18.30;43.90;;;;;;5079789;27;88518;-68
2022/01/31 02:48:28;;;;;;;11.87;5.57;;;18.30;43.90;;;;;;5078518;27;89469;-69
2022/01/31 02:50:57;;;;;;;7.50;4.33;;;18.30;44.00;;;;;;5079796;27;90060;-69
2022/01/31 02:53:26;;;;;;;8.80;5.27;;;18.30;44.00;;;;;;5077368;27;88666;-68
2022/01/31 02:55:57;;;;;;;8.13;4.90;;;18.40;44.10;;;;;;5078651;27;88888;-69
2022/01/31 02:58:26;;;;;;;7.30;5.00;;;18.30;44.00;;;;;;5078697;27;90692;-69
2022/01/31 03:00:55;;;;;;;9.53;5.30;;;18.30;44.00;;;;;;5069689;27;89253;-69
2022/01/31 03:03:23;;;;;;;8.40;5.27;;;18.30;44.00;;;;;;5063090;27;90357;-68
2022/01/31 03:05:51;;;;;;;7.73;4.90;;;18.40;44.10;;;;;;5075446;27;88698;-68
2022/01/31 03:08:19;;;;;;;10.60;5.67;;;18.40;44.10;;;;;;5077577;27;90690;-68
2022/01/31 03:10:47;;;;;;;7.53;5.20;;;18.40;44.10;;;;;;5077757;27;89081;-69
2022/01/31 03:13:16;;;;;;;7.37;4.70;;;18.40;44.10;;;;;;5066408;27;89799;-69
2022/01/31 03:15:44;;;;;;;10.40;4.90;;;18.40;44.10;;;;;;5078541;27;88782;-69
2022/01/31 03:18:12;;;;;;;8.70;4.73;;;18.40;44.10;;;;;;5073777;27;89475;-69
2022/01/31 03:20:41;;;;;;;8.37;4.23;;;18.30;44.10;;;;;;5079372;27;89271;-69
2022/01/31 03:23:09;;;;;;;6.13;3.90;;;18.30;44.10;;;;;;5081965;27;88939;-69
2022/01/31 03:25:37;;;;;;;7.23;4.00;;;18.40;44.20;;;;;;5073995;27;88641;-69
2022/01/31 03:28:05;;;;;;;6.87;4.13;;;18.30;44.10;;;;;;5081120;27;91194;-68
2022/01/31 03:30:34;;;;;;;8.60;4.30;;;18.30;44.10;;;;;;5079831;27;88840;-69
2022/01/31 03:33:02;;;;;;;6.33;4.07;;;18.30;44.10;;;;;;5071547;27;89917;-69
2022/01/31 03:35:30;;;;;;;5.47;3.57;;;18.30;44.10;;;;;;5079540;27;88648;-69
2022/01/31 03:37:58;;;;;;;5.10;3.63;;;18.30;44.10;;;;;;5081348;27;90457;-70
2022/01/31 03:40:27;;;;;;;7.87;3.87;;;18.30;44.20;;;;;;5081017;27;88810;-69
2022/01/31 03:42:55;;;;;;;9.00;4.30;;;18.30;44.20;;;;;;5080057;27;88589;-69
2022/01/31 03:45:22;;;;;;;6.93;3.67;;;18.30;44.20;;;;;;5080066;27;88805;-69
2022/01/31 03:47:52;;;;;;;8.53;3.87;;;18.30;44.20;;;;;;5081397;27;90622;-68
2022/01/31 03:50:20;;;;;;;7.20;3.53;;;18.30;44.20;;;;;;5079404;27;90560;-68
2022/01/31 03:52:48;;;;;;;6.97;3.57;;;18.30;44.20;;;;;;5082331;27;88805;-68
2022/01/31 03:55:16;;;;;;;5.43;3.80;;;18.30;44.20;;;;;;5077154;27;89480;-68
2022/01/31 03:57:44;;;;;;;6.00;4.00;;;18.30;44.20;;;;;;5078974;27;91965;-68
2022/01/31 04:00:14;;;;;;;6.23;3.07;;;18.30;44.20;;;;;;5080100;27;88837;-69
2022/01/31 04:02:42;;;;;;;4.87;3.30;;;18.30;44.20;;;;;;5081118;27;88901;-69
2022/01/31 04:05:11;;;;;;;7.00;2.90;;;18.20;44.20;;;;;;5081707;27;88642;-69
2022/01/31 04:07:40;;;;;;;6.40;3.10;;;18.30;44.20;;;;;;5081778;27;90562;-69
2022/01/31 04:10:09;;;;;;;6.00;2.90;;;18.30;44.20;;;;;;5069879;27;90013;-68
2022/01/31 04:12:36;;;;;;;5.00;2.50;;;18.30;44.20;;;;;;5079925;27;88408;-69
2022/01/31 04:15:05;;;;;;;5.63;3.30;;;18.30;44.20;;;;;;5072994;27;88440;-68
2022/01/31 04:17:33;;;;;;;4.60;2.93;;;18.30;44.20;;;;;;5078987;27;90609;-69
2022/01/31 04:20:01;;;;;;;5.07;2.20;;;18.30;44.20;;;;;;5082048;27;90065;-68
2022/01/31 04:22:34;;;;;;;4.73;2.77;;;18.30;44.20;;;;;;5079429;27;88559;-69
2022/01/31 04:25:05;;;;;;;4.63;2.50;;;18.30;44.20;;;;;;5067526;27;88626;-69
2022/01/31 04:27:44;;;;;;;5.93;2.63;;;18.30;44.20;;;;;;5081643;27;90147;-69
2022/01/31 04:30:14;;;;;;;3.27;2.20;;;18.30;44.20;;;;;;5081008;27;89991;-69
2022/01/31 04:32:41;;;;;;;6.03;2.43;;;18.30;44.20;;;;;;5079461;27;88726;-69
2022/01/31 04:35:09;;;;;;;4.63;2.50;;;18.30;44.20;;;;;;5081761;27;88386;-69
2022/01/31 04:37:39;;;;;;;3.97;2.37;;;18.30;44.20;;;;;;5081447;27;88579;-70
2022/01/31 04:40:13;;;;;;;3.60;2.13;;;18.30;44.20;;;;;;5081657;27;88341;-68
2022/01/31 04:42:43;;;;;;;4.00;1.93;;;18.30;44.20;;;;;;5079843;27;90328;-69
2022/01/31 04:45:11;;;;;;;3.80;1.87;;;18.30;44.20;;;;;;5081404;27;88507;-68
2022/01/31 04:47:39;;;;;;;5.20;2.37;;;18.30;44.20;;;;;;5077478;27;91840;-68
2022/01/31 04:50:08;;;;;;;6.93;2.60;;;18.30;44.90;;;;;;5080662;27;89394;-68
2022/01/31 04:52:38;;;;;;;5.33;2.03;;;18.30;44.20;;;;;;5069041;27;89718;-68
2022/01/31 04:55:09;;;;;;;3.83;1.60;;;18.30;44.20;;;;;;5079200;27;89107;-68
2022/01/31 04:57:37;;;;;;;3.33;2.10;;;18.20;44.20;;;;;;5080125;27;90667;-68
2022/01/31 05:00:06;;;;;;;2.57;1.30;;;18.30;44.20;;;;;;5081063;27;88825;-68
2022/01/31 05:02:34;;;;;;;3.33;1.60;;;18.30;44.20;;;;;;5077630;27;88435;-69
2022/01/31 05:05:02;;;;;;;3.23;1.60;;;18.30;44.20;;;;;;5081748;27;88541;-68
2022/01/31 05:07:30;;;;;;;4.27;2.27;;;18.20;44.20;;;;;;5080960;27;88435;-69
2022/01/31 05:09:58;;;;;;;4.70;1.60;;;18.20;44.80;;;;;;5079960;27;90013;-68
2022/01/31 05:12:28;;;;;;;4.03;1.77;;;18.20;44.20;;;;;;5079985;27;88666;-69
2022/01/31 05:14:55;;;;;;;2.30;1.60;;;18.20;44.20;;;;;;5080585;27;88641;-69
2022/01/31 05:17:23;;;;;;;4.30;1.47;;;18.20;44.20;;;;;;5080986;27;92217;-68
2022/01/31 05:19:51;;;;;;;3.20;1.97;;;18.20;44.20;;;;;;5076549;27;89046;-68
2022/01/31 05:22:19;;;;;;;3.30;1.70;;;18.30;44.20;;;;;;5073364;27;90197;-68
2022/01/31 05:24:47;;;;;;;2.70;1.50;;;18.20;44.20;;;;;;5081419;27;88472;-68
2022/01/31 05:27:15;;;;;;;3.23;1.53;;;18.20;44.20;;;;;;5079550;27;90616;-68
2022/01/31 05:29:44;;;;;;;3.60;1.70;;;18.20;44.20;;;;;;5067903;27;89972;-68
2022/01/31 05:32:12;;;;;;;5.00;1.30;;;18.20;44.20;;;;;;5080862;27;88488;-68
2022/01/31 05:34:41;;;;;;;4.23;1.50;;;18.20;44.20;;;;;;5078576;27;88657;-68
2022/01/31 05:37:09;;;;;;;2.87;1.40;;;18.20;44.20;;;;;;5060586;27;90610;-68
2022/01/31 05:39:38;;;;;;;2.43;0.97;;;18.20;44.20;;;;;;5070664;27;88928;-69
2022/01/31 05:42:07;;;;;;;4.03;1.20;;;18.20;44.20;;;;;;5069028;27;88773;-68
2022/01/31 05:44:35;;;;;;;1.83;1.50;;;18.20;44.10;;;;;;5079121;27;88708;-68
2022/01/31 05:47:05;;;;;;;4.90;1.40;;;18.20;44.10;;;;;;5081105;27;90857;-69
2022/01/31 05:49:35;;;;;;;2.00;1.30;;;18.20;44.10;;;;;;5077282;27;88978;-68
2022/01/31 05:52:06;;;;;;;2.53;1.10;;;18.20;44.10;;;;;;5079284;27;88580;-68
2022/01/31 05:54:34;;;;;;;5.77;1.43;;;18.20;44.10;;;;;;5080753;27;88598;-69
2022/01/31 05:57:03;;;;;;;4.37;1.30;;;18.20;44.10;;;;;;5079772;27;89621;-68
2022/01/31 05:59:31;;;;;;;2.80;1.33;;;18.30;44.10;;;;;;5080390;27;90073;-68
2022/01/31 06:02:01;;;;;;;5.63;1.57;;;18.20;44.00;;;;;;5072058;27;90178;-68
2022/01/31 06:04:31;;;;;;;4.37;1.20;;;18.20;44.10;;;;;;5071708;27;88479;-68
2022/01/31 06:06:59;;;;;;;1.77;1.03;;;18.20;44.10;;;;;;5079145;27;89676;-69
2022/01/31 06:09:28;;;;;;;3.77;1.23;;;18.20;44.10;;;;;;5079854;27;89045;-68
2022/01/31 06:11:55;;;;;;;2.70;1.40;;;18.20;44.10;;;;;;5079657;27;91368;-68
2022/01/31 06:14:24;;;;;;;6.80;2.00;;;18.20;44.10;;;;;;5080035;27;88663;-68
2022/01/31 06:16:51;;;;;;;1.80;1.30;;;18.20;44.10;;;;;;5064922;27;90716;-69
2022/01/31 06:19:19;;;;;;;2.13;1.17;;;18.20;44.10;;;;;;5078842;27;91645;-70
2022/01/31 06:21:49;;;;;;;1.47;0.90;;;18.20;44.10;;;;;;5079827;27;90324;-69
2022/01/31 06:24:17;;;;;;;5.13;1.23;;;18.20;44.10;;;;;;5071337;27;88626;-70
2022/01/31 06:26:44;;;;;;;2.40;1.07;;;18.10;44.00;;;;;;5080383;27;90783;-69
2022/01/31 06:29:13;;;;;;;2.63;1.00;;;18.10;44.00;;;;;;5079173;27;89054;-68
2022/01/31 06:31:40;;;;;;;4.03;1.10;;;18.10;43.90;;;;;;5071497;27;88747;-68
2022/01/31 06:34:08;;;;;;;4.40;1.30;;;18.10;43.90;;;;;;5062033;27;88628;-68
2022/01/31 06:36:36;;;;;;;1.77;1.23;;;18.20;44.00;;;;;;5068049;27;89752;-68
2022/01/31 06:39:07;;;;;;;4.50;1.00;;;18.10;44.00;;;;;;5063647;27;89000;-68
2022/01/31 06:41:35;;;;;;;4.90;1.03;;;18.10;44.00;;;;;;5061301;27;88554;-69
2022/01/31 06:44:03;;;;;;;3.77;1.17;;;18.10;44.00;;;;;;5064228;27;89187;-69
2022/01/31 06:46:31;;;;;;;2.07;1.00;;;18.10;43.90;;;;;;5066382;27;90521;-68
2022/01/31 06:48:59;;;;;;;2.73;1.00;;;18.10;43.90;;;;;;5077429;27;89543;-69
2022/01/31 06:51:28;;;;;;;3.57;0.90;;;18.10;44.00;;;;;;5072516;27;88388;-69
2022/01/31 06:53:57;;;;;;;4.43;1.20;;;18.10;44.00;;;;;;5076525;27;89501;-69
2022/01/31 06:56:30;;;;;;;7.00;1.33;;;18.10;44.00;;;;;;5073911;27;88486;-69
2022/01/31 06:58:58;;;;;;;1.37;1.07;;;18.10;43.90;;;;;;5077678;27;90084;-69
2022/01/31 07:01:26;;;;;;;2.97;0.90;;;18.10;43.90;;;;;;5081119;27;88896;-69
2022/01/31 07:03:55;;;;;;;2.03;0.97;;;18.10;43.90;;;;;;5079566;27;88621;-69
2022/01/31 07:06:23;;;;;;;4.93;1.47;;;18.10;43.90;;;;;;5074321;27;90647;-69
2022/01/31 07:08:51;;;;;;;2.63;1.17;;;18.10;43.90;;;;;;5083074;27;88744;-69
2022/01/31 07:11:23;;;;;;;4.77;1.43;;;18.10;43.90;;;;;;5081483;27;88346;-68
2022/01/31 07:14:01;;;;;;;1.73;0.60;;;18.10;43.90;;;;;;5080113;27;88650;-68
2022/01/31 07:16:29;;;;;;;2.70;0.93;;;18.10;43.90;;;;;;5068737;27;93204;-69
2022/01/31 07:19:03;;;;;;;2.83;1.40;;;18.10;43.80;;;;;;5071359;27;92331;-68
2022/01/31 07:21:37;;;;;;;1.70;0.90;;;18.10;43.80;;;;;;5081733;27;88835;-69
2022/01/31 07:24:18;;;;;;;4.20;1.40;;;18.10;43.80;;;;;;5081712;27;88281;-69
2022/01/31 07:26:46;;;;;;;3.67;0.97;;;18.10;43.80;;;;;;5081735;27;91060;-69
2022/01/31 07:29:16;;;;;;;3.43;0.97;;;18.10;43.80;;;;;;5082623;27;90433;-70
2022/01/31 07:31:45;;;;;;;4.83;1.33;;;18.10;43.80;;;;;;5081893;27;89108;-69
2022/01/31 07:34:13;;;;;;;2.90;0.90;;;18.10;43.80;;;;;;5077419;27;88482;-69
2022/01/31 07:36:41;;;;;;;1.63;0.93;;;18.10;43.80;;;;;;5082136;27;89602;-68
2022/01/31 07:39:09;;;;;;;3.17;0.87;;;18.10;43.80;;;;;;5076346;27;89138;-68
2022/01/31 07:41:40;;;;;;;2.57;1.00;;;18.10;43.80;;;;;;5081841;27;89428;-69
2022/01/31 07:44:08;;;;;;;4.13;1.20;;;18.10;43.80;;;;;;5076639;27;88530;-69
2022/01/31 07:46:38;;;;;;;3.00;0.97;;;18.10;43.80;;;;;;5076671;27;89602;-69
2022/01/31 07:49:06;;;;;;;5.33;1.07;;;18.10;43.80;;;;;;5072961;27;89034;-69
2022/01/31 07:51:36;;;;;;;1.50;0.93;;;18.10;43.80;;;;;;5062546;27;88809;-69
2022/01/31 07:54:04;;;;;;;6.53;1.03;;;18.00;43.70;;;;;;5068299;27;88677;-69
2022/01/31 07:56:32;;;;;;;3.60;0.97;;;18.00;43.70;;;;;;5077973;27;90856;-69
2022/01/31 07:59:00;;;;;;;7.13;1.20;;;18.10;43.80;;;;;;5078178;27;89995;-69
2022/01/31 08:01:28;;;;;;;4.63;1.20;;;18.00;43.70;;;;;;5074074;27;88978;-69
2022/01/31 08:03:58;;;;;;;4.27;1.40;;;18.00;43.70;;;;;;5063976;27;88580;-68
2022/01/31 08:06:26;;;;;;;2.00;0.73;;;18.00;43.70;;;;;;5079561;27;88356;-69
2022/01/31 08:08:54;;;;;;;3.57;1.00;;;18.00;43.70;;;;;;5062818;27;89073;-69
2022/01/31 08:11:25;;;;;;;5.43;1.47;;;18.00;43.70;;;;;;5076606;27;89626;-69
2022/01/31 08:13:57;;;;;;;3.47;1.23;;;18.00;43.70;;;;;;5082865;27;88523;-69
2022/01/31 08:16:25;;;;;;;4.53;1.50;;;18.00;43.70;;;;;;5080520;27;90749;-69
2022/01/31 08:18:53;;;;;;;5.63;1.30;;;18.00;43.80;;;;;;5081392;27;88907;-70
2022/01/31 08:21:23;;;;;;;6.37;1.17;;;18.00;43.80;;;;;;5083240;27;88374;-69
2022/01/31 08:23:51;;;;;;;2.93;0.70;;;18.00;43.90;;;;;;5077491;27;88615;-70
2022/01/31 08:26:20;;;;;;;1.00;0.80;;;18.00;44.60;;;;;;5077999;27;92176;-68
2022/01/31 08:28:54;;;;;;;6.33;1.30;;;18.10;44.00;;;;;;5081079;27;89201;-69
2022/01/31 08:31:24;;;;;;;3.87;1.33;;;18.20;44.20;;;;;;5081224;27;88531;-69
2022/01/31 08:34:06;;;;;;;5.63;1.20;;;18.30;44.20;;;;;;5070643;27;89492;-69
2022/01/31 08:36:35;;;;;;;8.60;1.33;;;18.50;44.40;;;;;;5074874;27;90742;-67
2022/01/31 08:39:08;;;;;;;3.43;1.50;;;18.70;44.50;;;;;;5079939;27;93326;-68
2022/01/31 08:41:37;;;;;;;6.10;1.53;;;19.00;44.70;;;;;;5083506;27;89655;-67
2022/01/31 08:44:05;;;;;;;4.83;1.03;;;19.20;44.60;;;;;;5081573;27;88750;-68
2022/01/31 08:46:34;;;;;;;3.80;1.47;;;19.50;44.70;;;;;;5078745;27;88263;-70
2022/01/31 08:49:03;;;;;;;4.67;0.97;;;19.80;44.80;;;;;;5077619;27;88999;-72
2022/01/31 08:51:31;;;;;;;3.50;1.37;;;20.00;44.70;;;;;;5091864;27;89289;-70
2022/01/31 08:54:00;;;;;;;3.37;1.23;;;20.30;44.70;;;;;;5075413;27;88811;-70
2022/01/31 08:56:28;;;;;;;3.87;1.03;;;20.50;44.60;;;;;;5073950;27;89615;-70
2022/01/31 08:58:56;;;;;;;2.80;1.23;;;20.80;44.60;;;;;;5080921;27;90071;-69
2022/01/31 09:01:25;;;;;;;2.70;0.87;;;20.90;44.50;;;;;;5078195;27;89779;-69
2022/01/31 09:04:03;;;;;;;2.07;0.80;;;21.20;44.50;;;;;;5080949;27;88523;-70
2022/01/31 09:06:33;;;;;;;2.47;1.20;;;21.30;44.40;;;;;;5081419;27;90830;-70
2022/01/31 09:09:06;;;;;;;3.33;0.90;;;21.40;44.20;;;;;;5081409;27;90256;-69
2022/01/31 09:11:36;;;;;;;4.07;1.17;;;21.60;44.20;;;;;;5080409;27;88917;-69
2022/01/31 09:14:04;;;;;;;3.40;0.97;;;21.60;44.00;;;;;;5085142;27;88567;-69
2022/01/31 09:16:32;;;;;;;4.50;1.20;;;21.70;44.00;;;;;;5080702;27;90737;-70
2022/01/31 09:19:02;;;;;;;3.40;1.10;;;21.70;43.90;;;;;;5080462;27;90246;-70
2022/01/31 09:21:30;;;;;;;1.50;1.00;;;21.60;43.90;;;;;;5083875;27;91077;-70
2022/01/31 09:23:58;;;;;;;3.97;1.10;;;21.60;43.90;;;;;;5076101;27;88619;-70
2022/01/31 09:26:27;;;;;;;3.03;1.13;;;21.70;43.80;;;;;;5076661;27;90686;-70
2022/01/31 09:28:55;;;;;;;4.50;1.57;;;21.70;43.80;;;;;;5077180;27;88828;-70
2022/01/31 09:31:24;;;;;;;3.23;1.10;;;21.80;43.80;;;;;;5078773;27;88444;-70
2022/01/31 09:33:52;;;;;;;3.73;1.07;;;21.90;43.70;;;;;;5081032;27;88625;-70
2022/01/31 09:36:22;;;;;;;4.33;1.27;;;22.10;43.60;;;;;;5083592;27;94154;-69
2022/01/31 09:38:50;;;;;;;6.33;1.30;;;22.20;43.50;;;;;;5080395;27;88555;-71
2022/01/31 09:41:22;;;;;;;2.40;1.27;;;22.30;43.40;;;;;;5078566;27;88447;-70
2022/01/31 09:44:09;;;;;;;5.07;1.20;;;22.40;43.20;;;;;;5077914;27;89854;-70
2022/01/31 09:49:23;;;;;;;3.93;1.17;;;22.50;43.00;;;;;;5070681;27;89075;-70
2022/01/31 09:51:51;;;;;;;3.33;1.20;;;22.50;42.90;;;;;;5077645;27;89754;-70
2022/01/31 09:54:19;;;;;;;3.50;1.30;;;22.50;42.90;;;;;;5066102;27;88424;-70
2022/01/31 09:56:47;;;;;;;2.37;1.37;;;22.50;42.90;;;;;;5079068;27;90750;-70
2022/01/31 09:59:17;;;;;;;3.10;1.00;;;22.50;42.90;;;;;;5079772;27;90103;-70
2022/01/31 10:01:47;;;;;;;3.53;1.10;;;22.50;42.90;;;;;;5080292;27;88931;-70
2022/01/31 10:04:18;;;;;;;3.07;1.00;;;22.60;42.90;;;;;;5076808;27;88510;-71
2022/01/31 10:06:47;;;;;;;5.57;1.37;;;22.70;42.80;;;;;;5079632;27;88497;-71
2022/01/31 10:09:17;;;;;;;2.70;1.60;;;22.80;42.70;;;;;;5079049;27;90087;-70
2022/01/31 10:11:49;;;;;;;4.60;1.17;;;22.90;42.60;;;;;;5073876;27;89730;-71
2022/01/31 10:17:07;;;;;;;3.20;1.07;;;23.10;42.40;;;;;;5073885;27;89306;-70
2022/01/31 10:19:49;;;;;;;5.10;1.20;;;23.20;42.30;;;;;;5074191;27;90033;-70
2022/01/31 10:22:18;;;;;;;8.07;1.60;;;23.30;42.20;;;;;;5089135;27;88554;-70
2022/01/31 10:24:47;;;;;;;6.63;1.60;;;23.30;42.00;;;;;;5079282;27;88425;-70
2022/01/31 10:27:17;;;;;;;5.47;2.10;;;23.40;42.00;;;;;;5071847;27;89300;-70
2022/01/31 10:29:48;;;;;;;7.50;2.07;;;23.30;41.90;;;;;;5069431;27;89540;-70
2022/01/31 10:32:20;;;;;;;5.40;2.23;;;23.30;41.90;;;;;;5082758;27;88311;-69
2022/01/31 10:34:50;;;;;;;5.83;2.00;;;23.30;41.90;;;;;;5070381;27;88486;-69
2022/01/31 10:37:21;;;;;;;6.93;2.27;;;23.30;41.90;;;;;;5081137;27;89383;-70
2022/01/31 10:54:27;;;;;;;4.63;1.93;;;23.80;41.50;;;;;;5075819;27;88466;-70
2022/01/31 10:56:57;;;;;;;9.03;2.50;;;23.90;41.40;;;;;;5082691;27;88458;-70
2022/01/31 10:59:26;;;;;;;4.37;1.60;;;24.00;41.30;;;;;;5080287;27;93558;-70
2022/01/31 11:01:56;;;;;;;4.27;2.27;;;24.10;41.30;;;;;;5077730;27;90207;-70
2022/01/31 11:04:33;;;;;;;5.57;2.33;;;24.10;41.10;;;;;;5081260;27;88456;-70
2022/01/31 11:07:02;;;;;;;7.03;2.77;;;24.20;41.10;;;;;;5082936;27;88128;-70
2022/01/31 11:09:30;;;;;;;6.27;2.70;;;24.20;41.10;;;;;;5077388;27;90085;-70
2022/01/31 11:11:59;;;;;;;6.90;2.17;;;24.10;41.00;;;;;;5066516;27;90107;-70
2022/01/31 11:14:27;;;;;;;10.00;2.53;;;24.00;41.00;;;;;;5064434;27;89489;-69
2022/01/31 11:16:56;;;;;;;4.77;2.00;;;23.90;40.90;;;;;;5077184;27;89855;-69
2022/01/31 11:19:30;;;;;;;6.33;2.13;;;23.80;40.90;;;;;;5082670;27;90881;-69
2022/01/31 11:22:02;;;;;;;5.83;2.10;;;23.70;41.00;;;;;;5082663;27;88889;-69
2022/01/31 11:24:31;;;;;;;5.10;2.20;;;23.60;41.00;;;;;;5072689;27;91601;-70
2022/01/31 11:27:03;;;;;;;6.93;1.87;;;23.50;41.00;;;;;;5082629;27;88677;-69
2022/01/31 11:29:31;;;;;;;4.33;1.73;;;23.50;41.00;;;;;;5079555;27;90690;-67
2022/01/31 11:32:01;;;;;;;20.47;2.10;;;23.50;41.10;;;;;;5081806;27;89157;-72
2022/01/31 11:34:29;;;;;;;4.70;2.07;;;23.50;41.00;;;;;;5082345;27;89518;-71
2022/01/31 11:36:57;;;;;;;9.47;2.50;;;23.50;41.00;;;;;;5084542;27;88502;-71
2022/01/31 11:39:25;;;;;;;4.87;1.90;;;23.60;41.10;;;;;;5079934;27;89668;-71
2022/01/31 11:41:55;;;;;;;6.17;2.10;;;23.60;41.10;;;;;;5079761;27;89182;-71
2022/01/31 11:44:26;;;;;;;7.53;2.10;;;23.60;41.20;;;;;;5083263;27;88978;-73
2022/01/31 11:46:55;;;;;;;12.63;3.07;;;23.50;41.10;;;;;;5082800;27;91090;-71
2022/01/31 11:49:24;;;;;;;9.30;2.43;;;23.50;41.20;;;;;;5086341;27;88432;-72
2022/01/31 11:52:06;;;;;;;6.53;2.93;;;23.50;41.20;;;;;;5081911;27;89029;-71
2022/01/31 11:54:37;;;;;;;5.47;2.90;;;23.40;41.30;;;;;;5076844;27;88914;-72
2022/01/31 11:57:18;;;;;;;7.90;2.97;;;23.30;41.30;;;;;;5083395;27;88349;-72
2022/01/31 11:59:50;;;;;;;4.60;2.83;;;23.30;41.40;;;;;;5078241;27;88593;-71
2022/01/31 12:02:20;;;;;;;6.27;2.50;;;23.20;41.50;;;;;;5070161;27;90057;-71
2022/01/31 12:04:50;;;;;;;7.33;2.90;;;23.10;41.50;;;;;;5079225;27;89565;-71
2022/01/31 12:07:36;;;;;;;10.60;3.03;;;23.00;41.40;;;;;;5069656;27;88704;-71
2022/01/31 12:10:05;;;;;;;4.20;2.80;;;22.90;41.50;;;;;;5065236;27;90244;-71
2022/01/31 12:12:42;;;;;;;6.40;3.10;;;22.90;41.60;;;;;;5072178;27;88727;-71
2022/01/31 12:15:53;;;;;;;4.60;2.30;;;22.80;41.50;;;;;;5080981;27;88581;-71
2022/01/31 12:19:27;;;;;;;9.13;2.63;;;22.70;41.60;;;;;;5087696;27;88709;-72
2022/01/31 12:22:01;;;;;;;10.87;2.93;;;22.60;41.60;;;;;;5073591;27;90699;-71
2022/01/31 12:24:34;;;;;;;6.73;2.97;;;22.50;41.60;;;;;;5078571;27;90085;-71
2022/01/31 12:27:09;;;;;;;6.40;2.20;;;22.40;41.60;;;;;;5080006;27;92385;-71
2022/01/31 12:29:40;;;;;;;7.97;2.67;;;22.30;41.60;;;;;;5068072;27;88508;-71
2022/01/31 12:32:13;;;;;;;8.83;3.23;;;22.30;41.70;;;;;;5080965;27;91070;-71
2022/01/31 12:34:49;;;;;;;8.70;3.10;;;22.20;41.60;;;;;;5075449;27;88840;-71
2022/01/31 12:37:22;;;;;;;9.83;2.80;;;22.20;41.70;;;;;;5084305;27;88900;-72
2022/01/31 12:40:01;;;;;;;9.13;3.00;;;22.20;41.70;;;;;;5077533;27;88677;-72
2022/01/31 12:46:12;;;;;;;16.87;2.60;;;22.10;41.70;;;;;;5066895;27;89945;-70
2022/01/31 12:48:40;;;;;;;8.00;3.00;;;22.00;41.70;;;;;;5062899;27;89430;-71
2022/01/31 12:51:09;;;;;;;9.77;2.77;;;22.00;41.70;;;;;;5071132;27;88533;-71
2022/01/31 12:53:49;;;;;;;10.63;3.53;;;22.00;41.80;;;;;;5069825;27;89369;-71
2022/01/31 12:56:24;;;;;;;7.27;3.73;;;21.90;41.80;;;;;;5081264;27;90095;-71
2022/01/31 12:58:57;;;;;;;6.07;3.27;;;21.90;41.80;;;;;;5066924;27;88264;-71
2022/01/31 13:01:27;;;;;;;7.80;2.80;;;21.90;41.80;;;;;;5063095;27;88535;-71
2022/01/31 13:03:57;;;;;;;7.53;2.80;;;21.80;42.30;;;;;;5074203;27;90650;-72
2022/01/31 13:06:46;;;;;;;4.90;2.70;;;21.80;41.70;;;;;;5068683;27;90262;-71
2022/01/31 13:09:18;;;;;;;7.63;2.63;;;21.70;41.80;;;;;;5056064;27;88732;-71
2022/01/31 13:11:47;;;;;;;8.77;3.57;;;21.80;41.70;;;;;;5067620;27;88648;-71
2022/01/31 13:14:17;;;;;;;5.60;3.23;;;21.80;41.70;;;;;;5072864;27;90991;-71
2022/01/31 13:17:08;;;;;;;10.47;3.20;;;21.90;41.80;;;;;;5073594;27;88495;-71
2022/01/31 13:19:37;;;;;;;7.33;3.23;;;22.10;41.80;;;;;;5070977;27;89337;-72
2022/01/31 13:22:08;;;;;;;9.77;3.40;;;22.20;41.70;;;;;;5075506;27;88654;-71
2022/01/31 13:24:42;;;;;;;7.80;3.23;;;22.40;41.60;;;;;;5079421;27;89547;-71